Time;durP1;ratioP1;P1;durP2;ratioP2;P2;SDS_P1;SDS_P2;PMS_P1;PMS_P2;Temp;Humidity;BMP_temperature;BMP_pressure;BME280_temperature;BME280_humidity;BME280_pressure;Samples;Min_cycle;Max_cycle;Signal;HPM_P1;HPM_P2
2021/05/11 00:01:05;;;;;;;4.95;2.67;;;;;;;20.07;51.79;99811.34;4957712;28;127524;-63
2021/05/11 00:03:32;;;;;;;4.03;2.60;;;;;;;20.06;52.11;99805.09;4944015;28;98090;-63
2021/05/11 00:05:58;;;;;;;5.47;3.00;;;;;;;19.99;52.25;99802.13;4944955;28;97807;-64
2021/05/11 00:08:24;;;;;;;4.30;2.90;;;;;;;20.00;52.34;99798.28;4939209;28;127918;-71
2021/05/11 00:10:50;;;;;;;4.90;2.88;;;;;;;19.97;52.48;99804.44;4922503;28;127784;-71
2021/05/11 00:13:16;;;;;;;4.18;2.75;;;;;;;19.97;52.48;99798.97;4942088;28;98473;-70
2021/05/11 00:15:42;;;;;;;4.30;2.85;;;;;;;19.91;52.62;99788.59;4923844;28;110691;-63
2021/05/11 00:18:10;;;;;;;5.18;2.53;;;;;;;19.92;52.25;99792.94;4939842;28;98478;-63
2021/05/11 00:20:36;;;;;;;4.20;2.80;;;;;;;19.95;52.20;99797.72;4944435;28;98330;-71
2021/05/11 00:23:02;;;;;;;5.22;2.70;;;;;;;19.99;51.94;99787.66;4944373;28;126655;-63
2021/05/11 00:25:28;;;;;;;3.67;2.70;;;;;;;19.98;52.13;99786.09;4945044;28;101365;-71
2021/05/11 00:27:54;;;;;;;3.70;2.50;;;;;;;19.98;51.80;99786.88;4945168;28;97925;-71
2021/05/11 00:30:20;;;;;;;5.82;2.60;;;;;;;19.95;51.76;99786.78;4944698;28;127308;-72
2021/05/11 00:32:46;;;;;;;6.07;2.58;;;;;;;19.98;51.75;99775.16;4944941;28;127704;-70
2021/05/11 00:35:12;;;;;;;4.40;2.42;;;;;;;19.92;51.38;99777.31;4945256;28;112948;-63
2021/05/11 00:37:38;;;;;;;4.95;2.65;;;;;;;19.92;51.53;99774.56;4963011;28;108585;-72
2021/05/11 00:40:06;;;;;;;4.00;2.60;;;;;;;19.91;51.47;99773.00;4965658;28;98487;-63
2021/05/11 00:42:33;;;;;;;6.00;2.67;;;;;;;19.85;51.84;99761.50;4930346;28;98192;-71
2021/05/11 00:44:59;;;;;;;4.40;2.60;;;;;;;19.88;51.84;99759.22;4965972;28;97690;-63
2021/05/11 00:47:25;;;;;;;3.08;2.38;;;;;;;19.80;51.84;99759.00;4945992;28;107624;-71
2021/05/11 00:49:51;;;;;;;3.00;2.65;;;;;;;19.82;51.85;99743.06;4926640;28;128028;-63
2021/05/11 00:52:17;;;;;;;4.22;2.55;;;;;;;19.78;51.89;99739.44;4926861;28;98182;-64
2021/05/11 00:54:43;;;;;;;5.20;2.60;;;;;;;19.77;51.96;99734.31;4940969;28;106416;-70
2021/05/11 00:57:10;;;;;;;4.65;2.85;;;;;;;19.75;51.86;99715.50;4944902;28;127936;-71
2021/05/11 00:59:37;;;;;;;3.60;2.50;;;;;;;19.75;52.17;99715.50;4926235;28;98645;-71
2021/05/11 01:02:05;;;;;;;3.88;2.50;;;;;;;19.65;52.04;99710.53;4927310;28;98914;-71
2021/05/11 01:04:32;;;;;;;4.35;2.47;;;;;;;19.70;52.08;99707.56;4965883;28;97904;-63
2021/05/11 01:06:58;;;;;;;4.18;2.60;;;;;;;19.59;52.33;99709.94;4964662;28;116420;-71
2021/05/11 01:09:24;;;;;;;5.25;2.67;;;;;;;19.66;51.95;99697.66;4945994;28;99906;-64
2021/05/11 01:11:50;;;;;;;2.85;2.45;;;;;;;19.63;52.04;99690.94;4950761;28;106029;-63
2021/05/11 01:14:17;;;;;;;5.68;2.85;;;;;;;19.57;52.14;99686.81;4964917;28;101841;-72
2021/05/11 01:16:46;;;;;;;3.80;2.60;;;;;;;19.51;52.30;99697.22;4964670;28;98109;-71
2021/05/11 01:24:09;;;;;;;5.32;2.80;;;;;;;19.47;52.04;99682.66;4964486;28;97866;-71
2021/05/11 01:48:18;;;;;;;4.15;2.63;;;;;;;19.29;52.41;99662.19;4962689;28;114088;-71
2021/05/11 01:50:57;;;;;;;3.37;2.43;;;;;;;19.24;52.46;99668.69;4937664;28;98486;-73
2021/05/11 02:23:10;;;;;;;4.57;2.53;;;;;;;18.96;52.99;99668.59;4965982;28;98081;-72
2021/05/11 02:25:37;;;;;;;5.35;2.78;;;;;;;18.93;53.15;99672.00;4981782;28;110000;-64
2021/05/11 02:28:03;;;;;;;6.15;2.95;;;;;;;18.95;53.35;99663.50;4951675;28;113732;-64
2021/05/11 02:30:29;;;;;;;6.13;2.75;;;;;;;18.92;53.24;99664.19;4927723;28;118541;-72
2021/05/11 02:32:55;;;;;;;4.70;2.90;;;;;;;18.86;53.50;99663.59;4963622;28;127920;-64
2021/05/11 02:35:21;;;;;;;4.82;3.00;;;;;;;18.86;53.29;99663.59;4963971;28;97912;-64
2021/05/11 02:37:47;;;;;;;4.78;2.70;;;;;;;18.83;53.35;99658.84;4943951;28;112512;-72
2021/05/11 02:40:15;;;;;;;3.42;2.78;;;;;;;18.77;53.67;99666.44;4944678;28;114779;-64
2021/05/11 02:42:43;;;;;;;4.72;2.92;;;;;;;18.77;53.67;99662.94;4961950;28;98392;-72
2021/05/11 02:45:11;;;;;;;4.13;3.03;;;;;;;18.61;54.09;99666.28;4948728;28;98482;-72
2021/05/11 02:47:48;;;;;;;5.13;2.88;;;;;;;18.65;53.86;99671.88;4983240;28;98093;-71
2021/05/11 02:50:16;;;;;;;5.32;3.17;;;;;;;18.56;54.06;99663.78;4970949;28;98602;-64
2021/05/11 02:52:42;;;;;;;6.88;3.10;;;;;;;18.56;54.07;99654.81;4961834;28;98940;-65
2021/05/11 02:55:08;;;;;;;5.30;3.00;;;;;;;18.53;54.12;99645.38;4967142;28;97908;-64
2021/05/11 02:57:34;;;;;;;6.25;3.20;;;;;;;18.47;54.32;99649.47;4979217;28;97918;-72
2021/05/11 03:00:00;;;;;;;4.20;3.05;;;;;;;18.31;54.72;99652.06;4969222;28;127950;-65
2021/05/11 03:02:28;;;;;;;3.38;3.08;;;;;;;18.34;54.69;99654.09;4963149;28;99080;-64
2021/05/11 03:04:55;;;;;;;4.85;3.13;;;;;;;18.30;54.79;99645.00;4929273;28;98094;-64
2021/05/11 03:07:21;;;;;;;4.88;3.17;;;;;;;18.30;54.95;99650.44;4964098;28;97902;-64
2021/05/11 03:09:48;;;;;;;4.30;3.28;;;;;;;18.17;54.99;99646.13;4963364;28;98392;-64
2021/05/11 03:12:14;;;;;;;4.55;2.95;;;;;;;18.11;55.30;99656.44;4944121;28;98540;-72
2021/05/11 03:14:40;;;;;;;3.90;3.40;;;;;;;18.04;55.66;99656.19;4963350;28;97924;-72
2021/05/11 03:17:06;;;;;;;7.10;3.20;;;;;;;18.02;55.52;99660.38;4962503;28;112869;-67
2021/05/11 03:19:32;;;;;;;4.88;3.58;;;;;;;17.99;55.00;99656.41;4911334;28;112711;-73
2021/05/11 03:21:58;;;;;;;4.22;3.50;;;;;;;17.94;55.40;99656.63;4929138;28;99155;-64
2021/05/11 03:24:24;;;;;;;4.15;3.40;;;;;;;17.94;55.50;99655.81;4974418;28;112500;-72
2021/05/11 03:26:50;;;;;;;5.32;3.72;;;;;;;17.88;55.44;99666.13;4982370;28;113518;-65
2021/05/11 03:29:17;;;;;;;4.55;3.63;;;;;;;17.73;56.19;99664.81;4981965;28;99076;-64
2021/05/11 03:31:43;;;;;;;6.45;3.70;;;;;;;17.80;56.05;99667.00;4982189;28;127705;-72
2021/05/11 03:34:09;;;;;;;5.88;3.63;;;;;;;17.74;56.18;99668.31;4980956;28;98332;-72
2021/05/11 03:36:35;;;;;;;4.32;3.58;;;;;;;17.70;56.20;99681.81;4982249;28;97870;-64
2021/05/11 03:39:04;;;;;;;4.38;3.85;;;;;;;17.66;56.20;99676.22;4982335;28;98028;-72
2021/05/11 03:41:35;;;;;;;5.22;4.00;;;;;;;17.62;56.30;99682.69;4980566;28;98422;-65
2021/05/11 03:44:07;;;;;;;5.20;3.90;;;;;;;17.66;56.74;99672.72;4964774;28;98375;-73
2021/05/11 03:46:35;;;;;;;5.20;3.97;;;;;;;17.71;56.63;99679.88;4982804;28;98112;-64
2021/05/11 03:49:02;;;;;;;6.03;3.83;;;;;;;17.62;56.73;99675.31;4982368;28;98369;-64
2021/05/11 03:51:28;;;;;;;5.35;3.40;;;;;;;17.63;56.88;99671.44;4959385;28;117900;-72
2021/05/11 03:53:54;;;;;;;5.30;3.67;;;;;;;17.67;56.72;99658.75;4961951;28;98360;-64
2021/05/11 03:56:20;;;;;;;6.53;3.90;;;;;;;17.76;56.82;99666.06;4962765;28;98155;-72
2021/05/11 03:58:47;;;;;;;7.70;3.92;;;;;;;17.66;57.17;99661.81;4962131;28;118296;-68
2021/05/11 04:01:13;;;;;;;5.20;3.55;;;;;;;17.80;57.08;99658.81;4962447;28;98650;-64
2021/05/11 04:03:39;;;;;;;5.45;3.70;;;;;;;17.81;56.84;99657.72;4960950;28;126680;-64
2021/05/11 04:06:05;;;;;;;6.95;3.60;;;;;;;17.78;56.85;99659.16;4961710;28;112127;-64
2021/05/11 04:16:53;;;;;;;7.20;4.53;;;;;;;17.90;56.77;99651.03;4932129;28;97817;-64
2021/05/11 04:19:19;;;;;;;7.05;4.55;;;;;;;17.99;56.56;99647.41;4967002;28;127918;-72
2021/05/11 04:21:45;;;;;;;6.05;4.32;;;;;;;18.00;56.58;99662.63;4964104;28;98366;-72
2021/05/11 04:24:11;;;;;;;7.07;4.28;;;;;;;18.05;56.37;99652.34;4945334;28;98342;-64
2021/05/11 04:26:37;;;;;;;5.85;4.10;;;;;;;18.05;56.64;99646.09;4943131;28;113045;-64
2021/05/11 04:29:03;;;;;;;7.30;3.80;;;;;;;18.16;56.21;99639.06;4977365;28;128067;-72
2021/05/11 04:31:30;;;;;;;5.07;3.70;;;;;;;18.21;56.54;99643.50;4942044;28;127815;-72
2021/05/11 04:33:57;;;;;;;4.85;3.80;;;;;;;18.22;56.24;99643.16;4978492;28;98561;-72
2021/05/11 04:36:23;;;;;;;4.85;3.70;;;;;;;18.26;56.36;99643.28;4979057;28;98003;-64
2021/05/11 04:38:49;;;;;;;5.57;3.65;;;;;;;18.32;56.23;99644.69;4960209;28;98436;-64
2021/05/11 04:41:15;;;;;;;5.63;3.38;;;;;;;18.35;55.85;99642.06;4977897;28;113826;-64
2021/05/11 04:43:42;;;;;;;4.45;3.22;;;;;;;18.39;56.05;99640.25;4978212;28;127665;-72
2021/05/11 04:46:25;;;;;;;4.05;3.22;;;;;;;18.47;55.96;99638.56;4978455;28;98023;-65
2021/05/11 04:48:52;;;;;;;6.32;3.58;;;;;;;18.58;55.58;99631.50;4977560;28;98824;-73
2021/05/11 04:51:19;;;;;;;6.63;3.60;;;;;;;18.72;55.41;99633.94;4977969;28;99030;-65
2021/05/11 04:53:45;;;;;;;4.93;3.38;;;;;;;18.75;55.57;99633.25;4975850;28;108026;-65
2021/05/11 04:56:11;;;;;;;5.43;3.08;;;;;;;18.92;55.27;99634.16;4956866;28;98304;-73
2021/05/11 04:58:38;;;;;;;5.63;3.25;;;;;;;19.01;55.25;99627.41;4976724;28;127570;-65
2021/05/11 05:01:04;;;;;;;5.32;3.03;;;;;;;19.12;55.09;99631.25;4960599;28;98900;-73
2021/05/11 05:03:39;;;;;;;5.32;3.22;;;;;;;19.33;54.59;99633.81;4952877;28;111323;-65
2021/05/11 05:06:06;;;;;;;5.03;3.22;;;;;;;19.56;53.65;99628.63;4972544;28;98008;-66
2021/05/11 05:08:32;;;;;;;4.07;3.10;;;;;;;19.74;53.63;99633.84;4962999;28;98044;-66
2021/05/11 05:10:58;;;;;;;3.35;3.05;;;;;;;19.98;52.79;99628.25;4943251;28;98517;-66
2021/05/11 05:13:25;;;;;;;5.53;3.33;;;;;;;20.14;52.46;99627.47;4980770;28;127477;-65
2021/05/11 05:15:55;;;;;;;5.05;3.15;;;;;;;20.37;52.05;99627.69;4962356;28;98218;-65
2021/05/11 05:18:22;;;;;;;3.35;3.00;;;;;;;20.57;51.41;99623.91;4981568;28;98584;-73
2021/05/11 05:20:50;;;;;;;4.13;3.15;;;;;;;20.82;50.98;99619.00;4976638;28;103106;-66
2021/05/11 05:23:17;;;;;;;5.22;2.90;;;;;;;21.01;50.72;99627.28;4946480;28;97983;-73
2021/05/11 05:26:25;;;;;;;4.25;2.70;;;;;;;21.32;49.96;99609.97;4943520;28;98074;-66
2021/05/11 05:28:43;;;;;;;3.92;2.75;;;;;;;21.55;49.58;99607.31;4971548;28;98990;-66
2021/05/11 05:31:09;;;;;;;6.70;2.90;;;;;;;21.70;49.25;99608.38;4978295;28;98635;-66
2021/05/11 05:33:37;;;;;;;8.27;5.45;;;;;;;21.79;49.02;99611.69;4980536;28;98290;-73
2021/05/11 05:36:03;;;;;;;5.63;3.92;;;;;;;22.00;48.56;99605.00;4981916;28;98059;-66
2021/05/11 05:38:30;;;;;;;35.28;27.02;;;;;;;21.90;48.75;99616.59;4967675;28;98567;-66
2021/05/11 05:41:00;;;;;;;11.18;8.73;;;;;;;22.21;48.46;99608.16;4953619;28;98873;-74
2021/05/11 05:43:26;;;;;;;6.88;5.47;;;;;;;22.34;48.22;99605.22;4959584;28;98490;-67
2021/05/11 05:45:53;;;;;;;7.05;3.80;;;;;;;22.53;47.91;99610.66;4942287;28;97969;-73
2021/05/11 05:48:20;;;;;;;5.45;2.92;;;;;;;22.76;47.19;99603.16;4942882;28;98628;-74
2021/05/11 05:50:49;;;;;;;4.85;3.10;;;;;;;22.97;46.83;99601.91;4941927;28;98311;-66
2021/05/11 05:53:22;;;;;;;4.05;2.45;;;;;;;23.15;46.68;99607.66;4961483;28;98095;-74
2021/05/11 05:55:48;;;;;;;11.98;10.82;;;;;;;23.09;46.72;99606.38;4958942;28;97981;-74
2021/05/11 05:58:14;;;;;;;6.03;5.00;;;;;;;23.10;45.65;99605.22;4953962;28;115279;-66
2021/05/11 06:00:41;;;;;;;4.75;2.70;;;;;;;23.43;45.38;99601.72;4924512;28;127965;-74
2021/05/11 06:03:17;;;;;;;5.45;2.45;;;;;;;23.66;44.86;99596.13;4961204;28;98233;-74
2021/05/11 06:05:43;;;;;;;5.10;3.45;;;;;;;24.32;43.12;99599.91;4961579;28;98174;-66
2021/05/11 06:08:09;;;;;;;4.15;2.30;;;;;;;24.68;42.25;99598.25;4959898;28;127576;-67
2021/05/11 06:10:36;;;;;;;3.00;2.13;;;;;;;25.26;41.86;99593.09;4941033;28;128464;-74
2021/05/11 06:13:13;;;;;;;3.78;2.33;;;;;;;25.56;41.28;99596.38;4938550;28;98480;-74
2021/05/11 06:18:24;;;;;;;3.15;1.60;;;;;;;26.50;39.06;99592.59;4958273;28;98201;-67
2021/05/11 06:20:50;;;;;;;3.33;1.55;;;;;;;27.12;37.97;99592.13;4959824;28;126213;-74
2021/05/11 06:23:18;;;;;;;2.85;1.48;;;;;;;27.42;37.60;99582.50;4922552;28;115587;-67
2021/05/11 06:25:45;;;;;;;4.82;1.60;;;;;;;27.71;37.14;99594.22;4936299;28;98000;-75
2021/05/11 06:28:14;;;;;;;3.25;1.70;;;;;;;28.21;36.35;99588.34;4960193;28;98476;-74
2021/05/11 06:30:40;;;;;;;2.15;1.30;;;;;;;28.26;35.65;99599.03;4922482;28;100195;-67
2021/05/11 06:33:07;;;;;;;2.47;1.33;;;;;;;28.28;34.38;99593.84;4931614;28;127896;-74
2021/05/11 06:35:34;;;;;;;3.72;1.42;;;;;;;28.45;34.75;99585.81;4951823;28;98038;-74
2021/05/11 06:38:01;;;;;;;3.17;1.42;;;;;;;28.61;34.22;99583.28;4959074;28;99170;-75
2021/05/11 06:40:28;;;;;;;3.50;1.30;;;;;;;28.87;34.01;99568.00;4958150;28;98579;-74
2021/05/11 06:42:54;;;;;;;2.60;1.58;;;;;;;28.67;34.32;99576.13;4964998;28;98242;-67
2021/05/11 06:46:04;;;;;;;3.33;1.42;;;;;;;28.34;35.08;99578.38;4960431;28;97921;-67
2021/05/11 06:48:20;;;;;;;2.72;1.40;;;;;;;28.05;35.61;99577.78;4960131;28;99016;-67
2021/05/11 06:53:44;;;;;;;3.28;1.25;;;;;;;29.08;34.16;99562.25;4942878;28;98686;-75
2021/05/11 06:56:12;;;;;;;4.03;1.27;;;;;;;28.71;33.13;99565.00;4953373;28;97988;-74
2021/05/11 06:58:38;;;;;;;2.45;1.38;;;;;;;29.29;32.67;99563.97;4921949;28;98396;-75
2021/05/11 07:01:05;;;;;;;4.53;1.50;;;;;;;29.11;32.67;99566.94;4941122;28;98406;-75
2021/05/11 07:03:31;;;;;;;4.22;1.40;;;;;;;29.64;32.30;99561.94;4957756;28;98110;-68
2021/05/11 07:05:59;;;;;;;2.60;1.15;;;;;;;30.07;31.59;99564.06;4953470;28;98275;-68
2021/05/11 07:08:52;;;;;;;4.60;1.30;;;;;;;29.76;32.30;99558.59;4953836;28;98939;-74
2021/05/11 07:13:47;;;;;;;4.35;1.40;;;;;;;29.93;31.44;99573.41;4936509;28;98482;-74
2021/05/11 07:16:13;;;;;;;4.70;1.40;;;;;;;30.41;30.13;99574.25;4941243;28;103561;-75
2021/05/11 07:18:39;;;;;;;3.53;1.58;;;;;;;31.37;29.48;99575.25;4958846;28;127332;-74
2021/05/11 07:21:05;;;;;;;2.50;1.40;;;;;;;31.45;29.68;99579.44;4956416;28;128010;-75
2021/05/11 07:23:32;;;;;;;7.15;2.22;;;;;;;31.96;28.77;99579.13;4940082;28;98135;-74
2021/05/11 07:26:26;;;;;;;3.30;1.40;;;;;;;32.10;27.06;99584.34;4924277;28;113062;-74
2021/05/11 07:31:41;;;;;;;3.58;1.33;;;;;;;30.90;30.28;99580.94;4952566;28;98892;-74
2021/05/11 07:34:08;;;;;;;4.32;1.58;;;;;;;31.39;29.65;99572.81;4954762;28;127362;-68
2021/05/11 07:36:35;;;;;;;3.53;1.65;;;;;;;31.66;29.35;99577.41;4941140;28;97892;-68
2021/05/11 07:39:01;;;;;;;2.65;1.17;;;;;;;30.95;29.45;99582.44;4959444;28;99036;-68
2021/05/11 07:41:28;;;;;;;2.60;1.38;;;;;;;30.89;30.64;99587.72;4956319;28;98938;-68
2021/05/11 07:43:57;;;;;;;4.57;1.08;;;;;;;31.35;28.97;99580.44;4954599;28;98369;-74
2021/05/11 08:05:18;;;;;;;4.28;1.35;;;;;;;35.81;23.37;99560.69;4929991;28;98583;-73
2021/05/11 08:15:50;;;;;;;1.75;1.20;;;;;;;38.08;20.78;99547.38;4931100;28;97869;-67
2021/05/11 08:28:38;;;;;;;3.15;1.30;;;;;;;38.78;18.55;99536.56;4933052;28;98152;-73
2021/05/11 08:31:04;;;;;;;2.25;1.10;;;;;;;39.19;19.51;99542.44;4930649;28;116130;-73
2021/05/11 08:33:30;;;;;;;3.00;1.13;;;;;;;39.65;19.10;99541.13;4912046;28;98455;-72
2021/05/11 08:35:56;;;;;;;2.72;1.05;;;;;;;39.15;19.24;99533.41;4909028;28;98121;-72
2021/05/11 08:38:22;;;;;;;2.67;1.25;;;;;;;39.61;19.20;99532.88;4925701;28;97925;-72
2021/05/11 08:40:48;;;;;;;1.88;1.20;;;;;;;39.92;18.19;99535.13;4936563;28;99172;-72
2021/05/11 08:43:35;;;;;;;2.33;1.27;;;;;;;40.27;18.05;99522.28;4936416;28;128507;-73
2021/05/11 08:46:03;;;;;;;2.15;1.08;;;;;;;40.24;18.29;99530.44;4921963;28;97897;-72
2021/05/11 08:48:30;;;;;;;3.03;1.10;;;;;;;40.84;17.26;99533.72;4937611;28;97992;-72
2021/05/11 08:51:10;;;;;;;2.38;1.20;;;;;;;40.88;17.67;99531.47;4936971;28;99036;-72
2021/05/11 09:05:08;;;;;;;2.08;1.17;;;;;;;42.51;16.04;99515.56;4912350;28;98705;-66
2021/05/11 09:07:46;;;;;;;2.20;1.30;;;;;;;42.23;16.39;99523.97;4953587;28;98022;-66
2021/05/11 09:24:51;;;;;;;3.10;1.10;;;;;;;40.85;17.79;99486.50;4905352;28;98571;-70
2021/05/11 09:57:13;;;;;;;3.15;1.20;;;;;;;42.86;15.60;99455.69;4959949;28;98000;-72
2021/05/11 10:15:02;;;;;;;3.15;1.20;;;;;;;45.86;13.30;99434.38;4951825;28;97906;-72
2021/05/11 10:39:57;;;;;;;3.63;1.47;;;;;;;45.24;14.85;99400.94;4958969;28;98578;-71
2021/05/11 10:46:23;;;;;;;4.07;1.50;;;;;;;45.37;15.42;99411.66;4955592;28;116486;-65
2021/05/11 10:48:24;;;;;;;2.70;1.20;;;;;;;46.05;15.03;99405.16;4947539;28;98713;-71
2021/05/11 10:51:04;;;;;;;2.45;1.55;;;;;;;45.69;15.02;99406.13;4954517;28;98212;-69
2021/05/11 10:53:58;;;;;;;3.80;1.50;;;;;;;45.72;14.44;99413.59;4950697;28;100103;-69
2021/05/11 10:56:27;;;;;;;4.72;1.30;;;;;;;45.85;13.83;99409.31;4942427;28;98907;-69
2021/05/11 11:01:44;;;;;;;4.22;1.50;;;;;;;45.08;14.96;99410.38;4950687;28;98020;-63
2021/05/11 11:04:20;;;;;;;3.15;1.60;;;;;;;44.77;15.50;99408.88;4955818;28;99041;-69
2021/05/11 11:09:37;;;;;;;2.90;1.27;;;;;;;45.22;15.30;99402.78;4953926;28;97941;-65
2021/05/11 11:12:09;;;;;;;3.60;1.38;;;;;;;44.54;16.18;99391.22;4953716;28;97893;-65
2021/05/11 11:14:38;;;;;;;3.78;1.58;;;;;;;43.75;16.67;99380.31;4941248;28;98622;-65
2021/05/11 11:17:10;;;;;;;4.18;1.52;;;;;;;44.16;16.01;99388.09;4924485;28;98731;-65
2021/05/11 11:19:36;;;;;;;4.07;1.40;;;;;;;43.85;15.69;99375.84;4941739;28;109377;-71
2021/05/11 11:25:01;;;;;;;2.83;1.35;;;;;;;42.70;17.80;99368.66;4933155;28;98210;-71
2021/05/11 11:27:29;;;;;;;2.40;1.50;;;;;;;41.77;18.38;99360.22;4957530;28;118594;-71
2021/05/11 11:30:09;;;;;;;3.55;1.50;;;;;;;42.42;17.78;99351.66;4958437;28;98098;-65
2021/05/11 11:32:36;;;;;;;3.65;1.52;;;;;;;42.86;17.94;99361.44;4960105;28;98644;-70
2021/05/11 11:35:06;;;;;;;3.72;1.50;;;;;;;42.98;17.76;99351.63;4924354;28;97727;-65
2021/05/11 11:37:32;;;;;;;2.53;1.50;;;;;;;43.20;17.83;99361.41;4940228;28;111111;-71
2021/05/11 11:40:00;;;;;;;2.50;1.20;;;;;;;43.30;17.16;99357.75;4958217;28;98412;-65
2021/05/11 11:42:36;;;;;;;3.90;1.40;;;;;;;43.14;17.41;99350.06;4956672;28;97871;-71
2021/05/11 11:45:03;;;;;;;4.03;1.35;;;;;;;43.22;16.93;99345.41;4954061;28;98833;-64
2021/05/11 11:47:30;;;;;;;2.63;1.23;;;;;;;43.07;17.37;99347.78;4959128;28;98649;-71
2021/05/11 11:50:02;;;;;;;3.97;1.40;;;;;;;42.23;17.88;99334.38;4958112;28;120972;-64
2021/05/11 11:52:33;;;;;;;2.22;1.38;;;;;;;43.07;17.44;99328.72;4958446;28;98118;-64
2021/05/11 11:57:46;;;;;;;3.75;1.40;;;;;;;42.32;18.04;99324.88;4954094;28;114023;-71
2021/05/11 12:00:24;;;;;;;2.95;1.10;;;;;;;42.30;17.99;99336.72;4938654;28;98310;-64
2021/05/11 12:02:54;;;;;;;1.92;1.35;;;;;;;42.14;17.95;99331.81;4952886;28;97995;-64
2021/05/11 12:05:21;;;;;;;;;;;;;;;42.52;17.54;99324.63;4945912;28;98824;-64
2021/05/11 12:07:59;;;;;;;3.45;1.15;;;;;;;41.50;18.33;99336.22;4959474;28;98334;-71
2021/05/11 12:10:26;;;;;;;4.30;1.30;;;;;;;41.45;18.43;99329.25;4956100;28;98011;-71
2021/05/11 12:12:52;;;;;;;5.22;1.48;;;;;;;41.12;18.76;99336.25;4959634;28;98010;-71
2021/05/11 12:15:22;;;;;;;4.30;1.35;;;;;;;40.86;19.15;99333.50;4954279;28;98545;-71
2021/05/11 12:18:09;;;;;;;2.70;1.27;;;;;;;41.11;18.28;99340.38;4942473;28;98889;-71
2021/05/11 12:20:35;;;;;;;4.47;1.20;;;;;;;40.14;17.66;99337.25;4957450;28;97989;-64
2021/05/11 12:23:14;;;;;;;3.03;1.02;;;;;;;40.35;17.99;99328.72;4962012;28;97958;-64
2021/05/11 12:25:41;;;;;;;2.80;1.25;;;;;;;40.22;18.06;99332.72;4957635;28;99315;-64
2021/05/11 12:28:07;;;;;;;3.30;1.40;;;;;;;39.76;18.61;99327.06;4940528;28;101914;-71
2021/05/11 12:30:51;;;;;;;3.75;1.02;;;;;;;40.24;18.06;99324.50;4960757;28;127634;-65
2021/05/11 12:33:17;;;;;;;4.13;1.10;;;;;;;39.88;17.93;99320.28;4960582;28;112966;-64
2021/05/11 12:35:43;;;;;;;4.35;1.10;;;;;;;39.86;18.59;99305.91;4919395;28;98313;-64
2021/05/11 12:38:24;;;;;;;2.50;1.15;;;;;;;40.12;19.14;99307.97;4942966;28;98631;-71
2021/05/11 12:41:09;;;;;;;2.15;1.00;;;;;;;39.45;19.57;99299.53;4927709;28;98496;-64
2021/05/11 12:43:48;;;;;;;3.05;1.23;;;;;;;39.59;19.24;99303.53;4963222;28;97816;-70
2021/05/11 12:46:37;;;;;;;3.97;1.05;;;;;;;39.86;19.75;99299.50;4958029;28;98415;-71
2021/05/11 12:49:18;;;;;;;3.08;1.05;;;;;;;39.17;18.91;99299.13;4955891;28;99178;-70
2021/05/11 12:51:49;;;;;;;;;;;;;;;39.72;18.71;99301.91;4957475;28;98074;-70
2021/05/11 12:54:39;;;;;;;3.55;1.08;;;;;;;39.45;19.96;99300.28;4940861;28;98293;-70
2021/05/11 13:00:00;;;;;;;3.65;1.15;;;;;;;39.24;20.03;99299.53;4952581;28;98702;-70
2021/05/11 13:16:59;;;;;;;2.67;0.98;;;;;;;37.69;21.49;99297.16;4956557;28;98089;-65
2021/05/11 13:22:25;;;;;;;3.78;1.25;;;;;;;37.95;20.57;99294.59;4961711;28;98206;-64
2021/05/11 13:33:09;;;;;;;5.50;1.27;;;;;;;37.27;21.68;99289.66;4950473;28;98479;-64
2021/05/11 13:35:36;;;;;;;3.80;1.25;;;;;;;37.05;21.10;99280.72;4952586;28;97879;-64
2021/05/11 13:38:02;;;;;;;4.10;1.20;;;;;;;36.82;21.37;99274.59;4934414;28;98092;-70
2021/05/11 13:40:28;;;;;;;2.22;1.10;;;;;;;36.94;21.50;99274.88;4957116;28;98462;-65
2021/05/11 13:42:55;;;;;;;2.97;0.90;;;;;;;36.98;21.51;99269.84;4963175;28;115814;-70
2021/05/11 13:45:21;;;;;;;4.78;1.00;;;;;;;36.83;21.80;99262.13;4941874;28;99707;-64
2021/05/11 13:47:59;;;;;;;2.45;1.08;;;;;;;36.80;22.33;99271.50;4960936;28;97785;-65
2021/05/11 13:50:39;;;;;;;3.22;1.10;;;;;;;36.90;22.11;99249.75;4951700;28;99847;-64
2021/05/11 13:53:05;;;;;;;3.67;1.38;;;;;;;36.57;21.81;99250.56;4961196;28;98765;-70
2021/05/11 14:03:46;;;;;;;3.35;1.20;;;;;;;35.91;21.57;99241.97;4942680;28;98356;-64
2021/05/11 14:06:12;;;;;;;3.17;1.10;;;;;;;35.78;21.77;99235.78;4937364;28;98411;-70
2021/05/11 14:08:38;;;;;;;3.15;1.10;;;;;;;35.92;22.09;99232.31;4937608;28;98230;-70
2021/05/11 14:11:04;;;;;;;5.05;1.17;;;;;;;35.64;21.15;99237.97;4939732;28;127758;-64
2021/05/11 14:13:30;;;;;;;3.28;1.10;;;;;;;35.30;21.97;99239.03;4938720;28;127776;-70
2021/05/11 14:15:56;;;;;;;3.47;1.10;;;;;;;35.33;21.64;99245.72;4940856;28;98207;-70
2021/05/11 14:18:22;;;;;;;3.40;1.00;;;;;;;34.90;22.67;99241.91;4961636;28;97914;-64
2021/05/11 14:20:48;;;;;;;4.53;0.88;;;;;;;34.78;21.91;99238.00;4940209;28;128789;-69
2021/05/11 14:23:14;;;;;;;3.70;1.20;;;;;;;34.37;22.12;99239.97;4954071;28;98733;-64
2021/05/11 14:25:40;;;;;;;3.40;0.93;;;;;;;34.24;22.33;99232.94;4952972;28;106977;-64
2021/05/11 14:28:06;;;;;;;2.45;0.88;;;;;;;34.13;22.77;99236.13;4933056;28;97967;-64
2021/05/11 14:30:33;;;;;;;3.67;0.80;;;;;;;34.22;22.60;99224.22;4935766;28;97961;-64
2021/05/11 14:32:59;;;;;;;4.55;0.90;;;;;;;33.87;22.93;99230.66;4954120;28;128094;-70
2021/05/11 14:35:25;;;;;;;3.58;0.90;;;;;;;33.65;21.22;99227.13;4956151;28;127486;-64
2021/05/11 14:37:51;;;;;;;3.60;0.80;;;;;;;33.76;21.58;99221.13;4951419;28;112352;-64
2021/05/11 14:40:17;;;;;;;2.40;0.70;;;;;;;33.61;22.65;99215.28;4950216;28;127986;-70
2021/05/11 14:42:44;;;;;;;2.50;1.00;;;;;;;33.54;21.43;99227.50;4927540;28;98992;-70
2021/05/11 14:45:11;;;;;;;4.68;0.90;;;;;;;33.22;20.76;99223.00;4952893;28;128610;-64
2021/05/11 14:47:44;;;;;;;2.47;0.70;;;;;;;33.22;20.73;99221.00;4940918;28;98506;-70
2021/05/11 14:50:14;;;;;;;1.85;0.60;;;;;;;33.03;21.98;99218.47;4959599;28;98906;-70
2021/05/11 14:52:40;;;;;;;4.05;0.60;;;;;;;33.09;21.41;99216.66;4953413;28;111823;-70
2021/05/11 14:55:07;;;;;;;4.25;0.98;;;;;;;32.93;21.78;99226.75;4960006;28;127629;-64
2021/05/11 14:57:34;;;;;;;2.97;0.68;;;;;;;32.67;22.35;99220.41;4937811;28;99515;-64
2021/05/11 15:00:00;;;;;;;4.07;0.82;;;;;;;32.64;22.92;99218.50;4940548;28;98436;-69
2021/05/11 15:02:26;;;;;;;4.93;0.80;;;;;;;32.58;22.39;99220.31;4945262;28;124102;-70
2021/05/11 15:04:53;;;;;;;2.85;0.88;;;;;;;32.34;22.64;99219.03;4932567;28;98712;-70
2021/05/11 15:07:19;;;;;;;2.60;0.93;;;;;;;32.28;22.73;99213.25;4932957;28;98203;-69
2021/05/11 15:09:45;;;;;;;2.78;0.65;;;;;;;32.33;22.97;99217.47;4936789;28;98644;-70
2021/05/11 15:12:11;;;;;;;3.55;0.70;;;;;;;32.17;22.76;99210.00;4939504;28;128298;-70
2021/05/11 15:14:38;;;;;;;4.30;0.90;;;;;;;32.18;22.79;99214.34;4943850;28;97775;-69
2021/05/11 15:19:57;;;;;;;2.97;0.70;;;;;;;32.10;24.20;99213.75;4920057;28;98760;-64
2021/05/11 15:22:24;;;;;;;3.08;1.00;;;;;;;32.19;24.25;99213.13;4940188;28;99021;-70
2021/05/11 15:24:50;;;;;;;3.10;0.80;;;;;;;32.15;24.21;99213.22;4923451;28;98138;-64
2021/05/11 15:27:19;;;;;;;25.55;5.25;;;;;;;32.07;24.23;99211.88;4920949;28;98311;-64
2021/05/11 15:29:45;;;;;;;59.38;13.02;;;;;;;32.00;23.55;99204.50;4941375;28;128018;-64
2021/05/11 15:32:49;;;;;;;20.20;4.70;;;;;;;31.92;23.93;99202.38;4953437;28;127827;-69
2021/05/11 15:35:17;;;;;;;5.28;1.40;;;;;;;31.77;23.48;99202.75;4958961;28;98657;-70
2021/05/11 15:37:45;;;;;;;5.20;1.10;;;;;;;31.77;23.42;99197.19;4958344;28;98625;-64
2021/05/11 15:40:13;;;;;;;4.47;0.88;;;;;;;31.69;23.10;99193.06;4952795;28;98788;-70
2021/05/11 15:42:40;;;;;;;3.10;0.80;;;;;;;31.62;23.69;99193.25;4921949;28;113785;-70
2021/05/11 15:45:07;;;;;;;3.63;1.10;;;;;;;31.60;23.74;99187.34;4901423;28;98029;-70
2021/05/11 15:47:33;;;;;;;4.55;1.08;;;;;;;31.40;23.40;99195.06;4919380;28;97981;-70
2021/05/11 15:49:59;;;;;;;3.88;1.00;;;;;;;31.40;24.06;99190.28;4919929;28;122328;-64
2021/05/11 15:52:25;;;;;;;5.50;1.00;;;;;;;31.35;24.52;99190.03;4914885;28;100657;-65
2021/05/11 15:54:51;;;;;;;4.00;0.70;;;;;;;31.34;24.57;99192.03;4948545;28;101389;-67
2021/05/11 15:57:18;;;;;;;4.40;0.90;;;;;;;31.34;24.40;99182.91;4958720;28;98880;-64
2021/05/11 15:59:44;;;;;;;3.28;0.77;;;;;;;31.07;24.17;99192.31;4952895;28;99150;-64